createdAt,value
2019-02-27T00:01:54.015Z,102756.37
2019-02-27T00:04:24.115Z,102750.62
2019-02-27T00:06:54.223Z,102749.23
2019-02-27T00:09:24.343Z,102749.10
2019-02-27T00:11:54.383Z,102761.18
2019-02-27T00:14:24.496Z,102757.64
2019-02-27T00:16:54.605Z,102762.50
2019-02-27T00:19:24.671Z,102763.08
2019-02-27T00:21:54.679Z,102762.45
2019-02-27T00:24:27.061Z,102757.19
2019-02-27T00:26:59.551Z,102755.09
2019-02-27T00:29:29.786Z,102755.23
2019-02-27T00:31:59.820Z,102754.61
2019-02-27T00:34:32.786Z,102750.73
2019-02-27T00:37:01.599Z,102753.14
2019-02-27T00:39:32.691Z,102747.14
2019-02-27T00:42:02.699Z,102743.02
2019-02-27T00:44:34.729Z,102741.52
2019-02-27T00:47:04.970Z,102739.77
2019-02-27T00:49:35.415Z,102739.50
2019-02-27T00:52:05.437Z,102741.52
2019-02-27T00:54:35.509Z,102740.45
2019-02-27T00:57:05.524Z,102741.38
2019-02-27T00:59:35.564Z,102733.80
2019-02-27T01:02:05.613Z,102729.89
2019-02-27T01:04:35.719Z,102728.73
2019-02-27T01:07:05.809Z,102728.94
2019-02-27T01:09:39.576Z,102724.97
2019-02-27T01:12:10.730Z,102726.02
2019-02-27T01:14:40.831Z,102722.06
2019-02-27T01:17:11.014Z,102717.73
2019-02-27T01:19:42.918Z,102721.72
2019-02-27T01:22:13.501Z,102722.78
2019-02-27T01:24:43.682Z,102715.66
2019-02-27T01:27:13.745Z,102717.77
2019-02-27T01:29:43.821Z,102715.48
2019-02-27T01:32:13.990Z,102709.39
2019-02-27T01:34:45.022Z,102697.47
2019-02-27T01:37:15.082Z,102695.58
2019-02-27T01:39:45.422Z,102691.89
2019-02-27T01:42:15.488Z,102688.58
2019-02-27T01:44:46.527Z,102679.55
2019-02-27T01:47:17.550Z,102679.75
2019-02-27T01:49:49.186Z,102679.00
2019-02-27T01:52:19.496Z,102675.94
2019-02-27T01:54:49.620Z,102674.20
2019-02-27T01:57:19.621Z,102668.17
2019-02-27T01:59:50.429Z,102664.20
2019-02-27T02:02:20.987Z,102662.84
2019-02-27T02:04:53.726Z,102653.16
2019-02-27T02:07:22.798Z,102656.98
2019-02-27T02:09:55.032Z,102655.32
2019-02-27T02:12:28.447Z,102647.70
2019-02-27T02:15:19.657Z,102648.17
2019-02-27T02:18:25.909Z,102644.09
2019-02-27T02:21:28.370Z,102642.02
2019-02-27T02:24:44.142Z,102632.45
2019-02-27T02:27:42.107Z,102624.76
2019-02-27T02:30:52.588Z,102622.96
2019-02-27T02:33:35.921Z,102615.20
2019-02-27T02:36:46.668Z,102610.81
2019-02-27T02:39:54.283Z,102607.44
2019-02-27T02:43:04.076Z,102613.70
2019-02-27T02:45:49.551Z,102604.18
2019-02-27T02:48:41.190Z,102597.98
2019-02-27T02:51:49.662Z,102600.58
2019-02-27T02:55:13.552Z,102596.59
2019-02-27T02:58:18.719Z,102593.88
2019-02-27T03:00:53.765Z,102589.69
2019-02-27T03:03:41.918Z,102587.07
2019-02-27T03:06:56.826Z,102587.91
2019-02-27T03:10:08.269Z,102584.72
2019-02-27T03:13:17.410Z,102578.18
2019-02-27T03:15:56.423Z,102580.95
2019-02-27T03:19:05.084Z,102573.30
2019-02-27T03:22:12.435Z,102570.31
2019-02-27T03:25:16.070Z,102557.48
2019-02-27T03:28:23.883Z,102555.55
2019-02-27T03:31:18.503Z,102560.55
2019-02-27T03:34:48.174Z,102550.11
2019-02-27T03:37:30.987Z,102544.40
2019-02-27T03:40:45.133Z,102539.53
2019-02-27T03:44:05.822Z,102535.36
2019-02-27T03:47:22.859Z,102525.27
2019-02-27T03:50:29.734Z,102525.70
2019-02-27T03:53:37.615Z,102529.06
2019-02-27T03:56:56.715Z,102523.33
2019-02-27T03:59:50.102Z,102526.25
2019-02-27T04:02:41.897Z,102515.44
2019-02-27T04:05:31.192Z,102515.06
2019-02-27T04:08:48.113Z,102520.60
2019-02-27T04:11:18.125Z,102517.44
2019-02-27T04:13:48.160Z,102514.19
2019-02-27T04:16:18.234Z,102514.67
2019-02-27T04:18:48.243Z,102517.91
2019-02-27T04:21:21.967Z,102513.61
2019-02-27T04:23:49.978Z,102514.76
2019-02-27T04:26:19.980Z,102505.63
2019-02-27T04:28:49.991Z,102499.39
2019-02-27T04:31:20.035Z,102505.20
2019-02-27T04:33:50.069Z,102504.19
2019-02-27T04:36:20.152Z,102498.20
2019-02-27T04:38:50.212Z,102497.23
2019-02-27T04:41:20.230Z,102498.84
2019-02-27T04:43:50.305Z,102498.73
2019-02-27T04:46:21.735Z,102492.66
2019-02-27T04:48:52.142Z,102498.47
2019-02-27T04:51:22.149Z,102497.11
2019-02-27T04:53:52.194Z,102504.66
2019-02-27T04:56:23.326Z,102499.32
2019-02-27T04:58:53.898Z,102503.40
2019-02-27T05:01:23.896Z,102500.11
2019-02-27T05:03:53.906Z,102497.25
2019-02-27T05:06:23.918Z,102499.70
2019-02-27T05:08:53.963Z,102497.52
2019-02-27T05:11:23.966Z,102500.17
2019-02-27T05:13:54.830Z,102501.88
2019-02-27T05:16:24.861Z,102504.80
2019-02-27T05:18:54.873Z,102505.68
2019-02-27T05:21:24.926Z,102506.84
2019-02-27T05:23:55.014Z,102507.38
2019-02-27T05:26:27.277Z,102505.37
2019-02-27T05:28:56.798Z,102495.31
2019-02-27T05:31:26.741Z,102499.94
2019-02-27T05:33:56.776Z,102504.48
2019-02-27T05:36:29.017Z,102498.98
2019-02-27T05:38:58.618Z,102488.45
2019-02-27T05:41:32.989Z,102499.81
2019-02-27T05:44:00.356Z,102498.19
2019-02-27T05:46:30.360Z,102495.50
2019-02-27T05:49:00.376Z,102494.48
2019-02-27T05:51:30.381Z,102494.80
2019-02-27T05:54:00.378Z,102493.59
2019-02-27T05:56:30.476Z,102498.77
2019-02-27T05:59:00.479Z,102493.46
2019-02-27T06:01:30.494Z,102492.22
2019-02-27T06:04:00.658Z,102495.77
2019-02-27T06:06:30.775Z,102487.87
2019-02-27T06:09:00.823Z,102488.58
2019-02-27T06:11:33.041Z,102487.06
2019-02-27T06:14:02.546Z,102475.54
2019-02-27T06:16:37.104Z,102479.53
2019-02-27T06:19:04.514Z,102482.94
2019-02-27T06:21:34.534Z,102472.15
2019-02-27T06:24:04.535Z,102468.65
2019-02-27T06:26:34.553Z,102473.47
2019-02-27T06:29:04.563Z,102463.28
2019-02-27T06:31:38.863Z,102470.25
2019-02-27T06:34:06.269Z,102465.32
2019-02-27T06:36:36.295Z,102471.78
2019-02-27T06:39:08.729Z,102466.44
2019-02-27T06:41:39.924Z,102464.67
2019-02-27T06:44:09.946Z,102467.37
2019-02-27T06:46:39.973Z,102473.17
2019-02-27T06:49:09.991Z,102471.34
2019-02-27T06:51:39.985Z,102466.75
2019-02-27T06:54:09.977Z,102458.98
2019-02-27T06:56:40.011Z,102463.50
2019-02-27T06:59:10.006Z,102456.06
2019-02-27T07:01:40.045Z,102455.45
2019-02-27T07:04:10.132Z,102450.19
2019-02-27T07:06:40.143Z,102447.70
2019-02-27T07:09:11.634Z,102446.17
2019-02-27T07:11:45.005Z,102443.22
2019-02-27T07:14:13.597Z,102445.02
2019-02-27T07:16:43.685Z,102440.32
2019-02-27T07:19:15.843Z,102433.81
2019-02-27T07:21:45.413Z,102435.93
2019-02-27T07:24:15.425Z,102435.93
2019-02-27T07:26:47.578Z,102431.83
2019-02-27T07:29:21.697Z,102430.25
2019-02-27T07:31:49.599Z,102423.89
2019-02-27T07:34:20.673Z,102428.39
2019-02-27T07:36:50.715Z,102424.41
2019-02-27T07:39:20.781Z,102424.80
2019-02-27T07:41:50.802Z,102422.34
2019-02-27T07:44:20.875Z,102419.52
2019-02-27T07:46:50.918Z,102422.63
2019-02-27T07:49:20.925Z,102426.66
2019-02-27T07:51:50.943Z,102430.92
2019-02-27T07:54:20.972Z,102431.77
2019-02-27T07:56:51.028Z,102435.49
2019-02-27T07:59:21.016Z,102432.91
2019-02-27T08:01:51.063Z,102431.89
2019-02-27T08:04:22.977Z,102435.27
2019-02-27T08:06:52.904Z,102441.65
2019-02-27T08:09:22.917Z,102431.09
2019-02-27T08:11:53.869Z,102436.00
2019-02-27T08:14:23.883Z,102437.52
2019-02-27T08:16:57.111Z,102429.92
2019-02-27T08:19:25.661Z,102430.17
2019-02-27T08:21:55.859Z,102418.37
2019-02-27T08:24:25.938Z,102410.66
2019-02-27T08:26:55.988Z,102414.02
2019-02-27T08:29:26.084Z,102411.23
2019-02-27T08:31:56.123Z,102414.45
2019-02-27T08:34:26.173Z,102410.62
2019-02-27T08:36:56.189Z,102407.69
2019-02-27T08:39:26.267Z,102406.73
2019-02-27T08:41:56.286Z,102401.89
2019-02-27T08:44:26.363Z,102390.77
2019-02-27T08:46:56.398Z,102384.50
2019-02-27T08:49:26.535Z,102381.66
2019-02-27T08:51:56.870Z,102383.31
2019-02-27T08:54:26.961Z,102386.41
2019-02-27T08:56:57.062Z,102385.34
2019-02-27T08:59:27.094Z,102374.22
2019-02-27T09:01:57.184Z,102379.25
2019-02-27T09:04:27.258Z,102378.13
2019-02-27T09:07:02.216Z,102375.18
2019-02-27T09:09:29.110Z,102369.37
2019-02-27T09:11:59.102Z,102365.07
2019-02-27T09:14:29.146Z,102355.84
2019-02-27T09:16:59.270Z,102360.51
2019-02-27T09:19:29.362Z,102366.03
2019-02-27T09:21:59.937Z,102356.56
2019-02-27T09:24:31.157Z,102353.22
2019-02-27T09:27:01.355Z,102348.12
2019-02-27T09:29:31.486Z,102338.13
2019-02-27T09:32:01.521Z,102326.80
2019-02-27T09:34:31.715Z,102331.61
2019-02-27T09:37:01.856Z,102322.92
2019-02-27T09:39:31.990Z,102317.38
2019-02-27T09:42:02.076Z,102319.66
2019-02-27T09:44:36.355Z,102319.48
2019-02-27T09:47:03.912Z,102314.96
2019-02-27T09:49:33.976Z,102318.19
2019-02-27T09:52:04.050Z,102310.06
2019-02-27T09:54:34.144Z,102310.28
2019-02-27T09:57:04.213Z,102306.05
2019-02-27T09:59:34.259Z,102303.89
2019-02-27T10:02:06.262Z,102300.78
2019-02-27T10:04:36.161Z,102292.09
2019-02-27T10:07:06.220Z,102283.95
2019-02-27T10:09:36.318Z,102283.22
2019-02-27T10:12:06.372Z,102278.20
2019-02-27T10:14:36.435Z,102269.98
2019-02-27T10:17:09.131Z,102266.75
2019-02-27T10:19:39.143Z,102268.62
2019-02-27T10:22:09.221Z,102268.17
2019-02-27T10:24:39.318Z,102259.12
2019-02-27T10:27:09.370Z,102257.94
2019-02-27T10:29:39.470Z,102250.75
2019-02-27T10:32:09.546Z,102247.42
2019-02-27T10:34:39.674Z,102244.05
2019-02-27T10:37:12.907Z,102242.16
2019-02-27T10:39:41.463Z,102237.16
2019-02-27T10:42:11.540Z,102227.73
2019-02-27T10:44:41.586Z,102225.02
2019-02-27T10:47:11.725Z,102217.69
2019-02-27T10:49:41.829Z,102217.63
2019-02-27T10:52:11.909Z,102209.70
2019-02-27T10:54:42.003Z,102204.75
2019-02-27T10:57:12.326Z,102202.17
2019-02-27T10:59:42.424Z,102195.44
2019-02-27T11:02:13.305Z,102197.89
2019-02-27T11:04:43.513Z,102196.30
2019-02-27T11:07:15.929Z,102195.70
2019-02-27T11:09:45.545Z,102194.05
2019-02-27T11:12:15.603Z,102189.37
2019-02-27T11:14:45.724Z,102190.25
2019-02-27T11:17:15.866Z,102181.09
2019-02-27T11:19:45.929Z,102174.50
2019-02-27T11:22:16.072Z,102165.31
2019-02-27T11:24:48.979Z,102159.66
2019-02-27T11:27:17.889Z,102154.90
2019-02-27T11:29:48.129Z,102146.73
2019-02-27T11:32:23.061Z,102141.01
2019-02-27T11:34:50.106Z,102135.71
2019-02-27T11:37:20.185Z,102128.33
2019-02-27T11:39:50.284Z,102117.73
2019-02-27T11:42:20.328Z,102117.53
2019-02-27T11:44:50.450Z,102113.80
2019-02-27T11:47:20.600Z,102105.97
2019-02-27T11:49:50.647Z,102098.94
2019-02-27T11:52:20.724Z,102096.77
2019-02-27T11:54:50.791Z,102090.03
2019-02-27T11:57:20.861Z,102093.52
2019-02-27T11:59:50.919Z,102087.44
2019-02-27T12:02:28.789Z,102082.17
2019-02-27T12:04:55.367Z,102072.32
2019-02-27T12:07:24.723Z,102069.50
2019-02-27T12:09:54.829Z,102057.73
2019-02-27T12:12:24.853Z,102058.69
2019-02-27T12:14:54.893Z,102055.51
2019-02-27T12:17:25.714Z,102051.08
2019-02-27T12:19:56.005Z,102043.21
2019-02-27T12:22:26.021Z,102049.26
2019-02-27T12:24:56.175Z,102050.45
2019-02-27T12:27:47.771Z,102044.32
2019-02-27T12:30:00.103Z,102038.62
2019-02-27T12:32:29.747Z,102036.66
2019-02-27T12:34:59.919Z,102034.39
2019-02-27T12:37:33.876Z,102035.64
2019-02-27T12:40:01.650Z,102036.02
2019-02-27T12:42:37.263Z,102029.13
2019-02-27T12:45:03.471Z,102029.35
2019-02-27T12:47:33.532Z,102033.06
2019-02-27T12:50:03.573Z,102028.84
2019-02-27T12:52:33.629Z,102023.13
2019-02-27T12:55:03.721Z,102022.47
2019-02-27T12:57:33.791Z,102017.67
2019-02-27T13:00:05.746Z,102014.36
2019-02-27T13:02:35.996Z,102011.12
2019-02-27T13:05:07.055Z,101995.68
2019-02-27T13:07:37.101Z,101983.48
2019-02-27T13:10:09.473Z,101973.39
2019-02-27T13:12:39.505Z,101973.66
2019-02-27T13:15:10.317Z,101972.78
2019-02-27T13:17:40.369Z,101966.11
2019-02-27T13:20:13.733Z,101964.61
2019-02-27T13:22:43.776Z,101958.16
2019-02-27T13:25:13.823Z,101958.16
2019-02-27T13:27:43.985Z,101952.17
2019-02-27T13:30:16.273Z,101939.38
2019-02-27T13:32:46.361Z,101933.69
2019-02-27T13:35:16.486Z,101923.64
2019-02-27T13:37:46.532Z,101924.20
2019-02-27T13:40:17.872Z,101925.24
2019-02-27T13:42:52.382Z,101918.58
2019-02-27T13:45:21.903Z,101899.03
2019-02-27T13:47:52.019Z,101903.34
2019-02-27T13:50:25.685Z,101910.53
2019-02-27T13:52:54.202Z,101910.53
2019-02-27T13:55:24.345Z,101889.20
2019-02-27T13:57:58.861Z,101883.48
2019-02-27T14:00:28.083Z,101883.48
2019-02-27T14:02:58.179Z,101871.82
2019-02-27T14:05:29.513Z,101878.91
2019-02-27T14:07:59.714Z,101853.00
2019-02-27T14:10:29.863Z,101853.00
2019-02-27T14:12:59.873Z,101868.28
2019-02-27T14:15:31.617Z,101857.28
2019-02-27T14:18:01.771Z,101858.02
2019-02-27T14:20:31.868Z,101852.73
2019-02-27T14:23:01.885Z,101853.02
2019-02-27T14:25:33.179Z,101839.38
2019-02-27T14:28:03.525Z,101834.39
2019-02-27T14:30:36.665Z,101829.48
2019-02-27T14:33:06.705Z,101822.95
2019-02-27T14:35:36.790Z,101818.79
2019-02-27T14:38:06.791Z,101815.53
2019-02-27T14:40:39.509Z,101806.72
2019-02-27T14:43:08.574Z,101805.00
2019-02-27T14:45:40.690Z,101805.34
2019-02-27T14:48:10.415Z,101797.27
2019-02-27T14:50:40.630Z,101789.22
2019-02-27T14:53:10.668Z,101785.17
2019-02-27T14:55:40.746Z,101785.17
2019-02-27T14:58:10.810Z,101789.04
2019-02-27T15:00:41.236Z,101769.78
2019-02-27T15:03:11.252Z,101768.00
2019-02-27T15:05:44.744Z,101763.88
2019-02-27T15:08:13.016Z,101760.73
2019-02-27T15:10:43.086Z,101758.15
2019-02-27T15:13:13.113Z,101753.60
2019-02-27T15:15:43.835Z,101743.62
2019-02-27T15:18:14.448Z,101735.00
2019-02-27T15:20:44.509Z,101737.80
2019-02-27T15:23:14.584Z,101736.56
2019-02-27T15:25:44.635Z,101732.87
2019-02-27T15:28:14.854Z,101726.95
2019-02-27T15:30:46.734Z,101727.77
2019-02-27T15:33:29.791Z,101722.02
2019-02-27T15:35:59.889Z,101720.83
2019-02-27T15:38:29.919Z,101723.88
2019-02-27T15:41:02.415Z,101718.41
2019-02-27T15:43:33.470Z,101715.70
2019-02-27T15:46:04.107Z,101708.47
2019-02-27T15:48:34.155Z,101706.84
2019-02-27T15:51:04.244Z,101693.75
2019-02-27T15:53:34.270Z,101693.55
2019-02-27T15:56:05.406Z,101692.39
2019-02-27T15:58:36.986Z,101689.12
2019-02-27T16:01:07.486Z,101685.30
2019-02-27T16:03:37.542Z,101681.42
2019-02-27T16:06:07.855Z,101675.45
2019-02-27T16:08:37.980Z,101668.45
2019-02-27T16:11:08.044Z,101666.62
2019-02-27T16:13:38.105Z,101665.08
2019-02-27T16:16:08.253Z,101663.45
2019-02-27T16:18:38.297Z,101663.40
2019-02-27T16:21:08.340Z,101658.22
2019-02-27T16:23:38.413Z,101653.82
2019-02-27T16:26:08.427Z,101648.44
2019-02-27T16:28:38.511Z,101639.48
2019-02-27T16:31:08.577Z,101638.75
2019-02-27T16:33:38.627Z,101642.97
2019-02-27T16:36:08.679Z,101627.28
2019-02-27T16:38:41.132Z,101627.88
2019-02-27T16:41:10.951Z,101620.19
2019-02-27T16:43:41.011Z,101614.57
2019-02-27T16:46:11.070Z,101610.97
2019-02-27T16:48:41.140Z,101608.83
2019-02-27T16:51:11.165Z,101604.33
2019-02-27T16:53:41.198Z,101607.20
2019-02-27T16:56:11.880Z,101600.73
2019-02-27T16:58:43.271Z,101602.03
2019-02-27T17:01:13.469Z,101589.78
2019-02-27T17:03:45.184Z,101582.52
2019-02-27T17:06:18.273Z,101584.91
2019-02-27T17:08:47.205Z,101578.95
2019-02-27T17:11:17.297Z,101580.03
2019-02-27T17:13:49.410Z,101571.40
2019-02-27T17:16:19.095Z,101574.58
2019-02-27T17:18:49.143Z,101571.02
2019-02-27T17:21:21.843Z,101573.11
2019-02-27T17:23:50.966Z,101571.41
2019-02-27T17:26:21.027Z,101561.88
2019-02-27T17:28:51.513Z,101559.48
2019-02-27T17:31:22.367Z,101556.52
2019-02-27T17:33:52.431Z,101549.98
2019-02-27T17:36:22.469Z,101537.05
2019-02-27T17:38:52.555Z,101536.08
2019-02-27T17:41:22.675Z,101536.08
2019-02-27T17:43:52.777Z,101528.84
2019-02-27T17:46:22.821Z,101516.23
2019-02-27T17:48:53.244Z,101516.23
2019-02-27T17:51:25.675Z,101521.55
2019-02-27T17:53:59.025Z,101516.92
2019-02-27T17:56:32.206Z,101518.49
2019-02-27T17:59:08.619Z,101509.22
2019-02-27T18:01:38.397Z,101510.42
2019-02-27T18:04:08.568Z,101498.75
2019-02-27T18:06:39.005Z,101497.63
2019-02-27T18:09:12.908Z,101494.20
2019-02-27T18:11:43.513Z,101489.19
2019-02-27T18:14:13.991Z,101485.23
2019-02-27T18:16:44.510Z,101480.31
2019-02-27T18:19:16.664Z,101480.91
2019-02-27T18:21:47.744Z,101468.40
2019-02-27T18:24:18.161Z,101464.83
2019-02-27T18:26:51.120Z,101456.84
2019-02-27T18:29:21.852Z,101450.12
2019-02-27T18:31:52.261Z,101447.28
2019-02-27T18:34:22.807Z,101440.85
2019-02-27T18:36:53.281Z,101432.56
2019-02-27T18:39:25.735Z,101432.03
2019-02-27T18:41:55.913Z,101426.83
2019-02-27T18:44:26.434Z,101412.33
2019-02-27T18:46:59.783Z,101415.67
2019-02-27T18:49:28.770Z,101409.64
2019-02-27T18:51:58.874Z,101407.09
2019-02-27T18:54:29.096Z,101398.52
2019-02-27T18:57:03.251Z,101391.81
2019-02-27T18:59:40.598Z,101385.31
2019-02-27T19:02:11.083Z,101388.44
2019-02-27T19:04:41.600Z,101377.76
2019-02-27T19:07:17.273Z,101385.16
2019-02-27T19:09:47.068Z,101378.27
2019-02-27T19:12:17.556Z,101383.49
2019-02-27T19:14:47.724Z,101384.86
2019-02-27T19:17:17.832Z,101379.84
2019-02-27T19:19:48.944Z,101383.14
2019-02-27T19:22:19.266Z,101378.20
2019-02-27T19:24:49.376Z,101371.20
2019-02-27T19:27:19.500Z,101363.70
2019-02-27T19:29:49.550Z,101365.80
2019-02-27T19:32:23.199Z,101360.36
2019-02-27T19:34:52.718Z,101359.83
2019-02-27T19:37:22.885Z,101350.48
2019-02-27T19:39:53.377Z,101354.91
2019-02-27T19:42:24.730Z,101356.45
2019-02-27T19:44:54.825Z,101359.73
2019-02-27T19:47:24.976Z,101349.73
2019-02-27T19:49:55.085Z,101349.73
2019-02-27T19:52:26.864Z,101344.01
2019-02-27T19:54:56.960Z,101346.77
2019-02-27T19:57:27.054Z,101338.27
2019-02-27T19:59:59.092Z,101341.97
2019-02-27T20:02:28.882Z,101339.08
2019-02-27T20:04:58.936Z,101332.21
2019-02-27T20:07:29.011Z,101336.24
2019-02-27T20:09:59.139Z,101329.88
2019-02-27T20:12:29.305Z,101329.88
2019-02-27T20:14:59.382Z,101323.86
2019-02-27T20:17:32.882Z,101315.42
2019-02-27T20:20:04.142Z,101318.69
2019-02-27T20:22:33.236Z,101316.45
2019-02-27T20:25:03.298Z,101308.24
2019-02-27T20:27:33.405Z,101307.04
2019-02-27T20:30:03.655Z,101295.56
2019-02-27T20:32:33.760Z,101291.61
2019-02-27T20:35:03.797Z,101300.04
2019-02-27T20:37:33.888Z,101292.12
2019-02-27T20:40:04.168Z,101287.98
2019-02-27T20:42:34.311Z,101277.13
2019-02-27T20:45:04.628Z,101269.18
2019-02-27T20:47:34.691Z,101272.59
2019-02-27T20:50:05.281Z,101264.47
2019-02-27T20:52:35.340Z,101259.92
2019-02-27T20:55:05.555Z,101262.19
2019-02-27T20:57:35.612Z,101257.40
2019-02-27T21:00:06.690Z,101254.49
2019-02-27T21:02:36.847Z,101260.08
2019-02-27T21:05:09.519Z,101246.80
2019-02-27T21:07:40.048Z,101245.82
2019-02-27T21:10:19.984Z,101245.61
2019-02-27T21:12:54.074Z,101239.14
2019-02-27T21:15:18.210Z,101236.83
2019-02-27T21:17:48.272Z,101237.73
2019-02-27T21:20:18.448Z,101231.23
2019-02-27T21:22:48.674Z,101235.20
2019-02-27T21:25:18.920Z,101223.11
2019-02-27T21:27:49.258Z,101223.33
2019-02-27T21:30:19.554Z,101219.02
2019-02-27T21:32:49.710Z,101213.06
2019-02-27T21:35:19.876Z,101208.78
2019-02-27T21:37:51.020Z,101202.97
2019-02-27T21:40:21.224Z,101193.06
2019-02-27T21:42:51.966Z,101198.66
2019-02-27T21:45:22.131Z,101189.12
2019-02-27T21:47:52.936Z,101184.39
2019-02-27T21:50:23.142Z,101186.43
2019-02-27T21:52:55.651Z,101182.91
2019-02-27T21:55:25.310Z,101181.06
2019-02-27T21:57:58.054Z,101179.57
2019-02-27T22:00:28.811Z,101170.32
2019-02-27T22:03:04.002Z,101174.86
2019-02-27T22:05:30.552Z,101170.09
2019-02-27T22:08:00.611Z,101178.16
2019-02-27T22:10:30.655Z,101166.59
2019-02-27T22:13:00.717Z,101160.99
2019-02-27T22:15:30.763Z,101163.61
2019-02-27T22:18:00.782Z,101155.55
2019-02-27T22:20:30.798Z,101152.87
2019-02-27T22:23:00.918Z,101148.63
2019-02-27T22:25:31.267Z,101146.45
2019-02-27T22:28:01.545Z,101146.38
2019-02-27T22:30:31.976Z,101142.21
2019-02-27T22:33:02.729Z,101142.79
2019-02-27T22:35:37.365Z,101140.36
2019-02-27T22:38:05.820Z,101141.53
2019-02-27T22:40:37.997Z,101130.70
2019-02-27T22:43:07.909Z,101121.64
2019-02-27T22:45:40.476Z,101122.30
2019-02-27T22:48:09.922Z,101111.19
2019-02-27T22:50:41.249Z,101114.86
2019-02-27T22:53:11.982Z,101101.11
2019-02-27T22:55:43.043Z,101111.56
2019-02-27T22:58:13.401Z,101107.38
2019-02-27T23:01:05.565Z,101106.80
2019-02-27T23:03:44.540Z,101104.41
2019-02-27T23:06:14.832Z,101103.22
2019-02-27T23:08:44.851Z,101095.25
2019-02-27T23:11:15.005Z,101090.30
2019-02-27T23:13:48.404Z,101088.69
2019-02-27T23:16:20.024Z,101089.31
2019-02-27T23:18:50.050Z,101086.72
2019-02-27T23:21:20.095Z,101085.30
2019-02-27T23:23:50.107Z,101081.85
2019-02-27T23:26:20.984Z,101079.78
2019-02-27T23:28:51.107Z,101074.20
2019-02-27T23:31:23.313Z,101071.95
2019-02-27T23:33:52.874Z,101067.43
2019-02-27T23:36:22.952Z,101062.36
2019-02-27T23:38:52.955Z,101060.36
2019-02-27T23:41:23.852Z,101056.63
2019-02-27T23:43:53.929Z,101057.14
2019-02-27T23:46:24.037Z,101058.84
2019-02-27T23:48:54.150Z,101049.85
2019-02-27T23:51:24.292Z,101053.52
2019-02-27T23:53:54.331Z,101046.63
2019-02-27T23:56:24.452Z,101048.80
2019-02-27T23:58:54.479Z,101054.64
